createdAt,value
2024-01-16T00:01:59.805Z,-2.24
2024-01-16T00:04:28.208Z,-1.94
2024-01-16T00:06:55.631Z,-1.97
2024-01-16T00:09:22.865Z,-2.22
2024-01-16T00:11:49.849Z,-1.90
2024-01-16T00:14:17.067Z,-2.09
2024-01-16T00:16:47.884Z,-2.35
2024-01-16T00:19:15.406Z,-2.30
2024-01-16T00:21:43.728Z,-2.21
2024-01-16T00:24:10.975Z,-1.95
2024-01-16T00:26:38.276Z,-2.59
2024-01-16T00:29:07.862Z,-1.94
2024-01-16T00:31:35.373Z,-2.17
2024-01-16T00:34:02.810Z,-2.10
2024-01-16T00:36:30.193Z,-2.29
2024-01-16T00:38:57.701Z,-1.96
2024-01-16T00:41:25.361Z,-2.11
2024-01-16T00:43:52.696Z,-2.47
2024-01-16T00:46:20.009Z,-2.28
2024-01-16T00:48:47.356Z,-2.12
2024-01-16T00:51:14.501Z,-2.16
2024-01-16T00:53:42.509Z,-1.96
2024-01-16T00:56:10.273Z,-2.00
2024-01-16T00:58:37.629Z,-2.04
2024-01-16T01:01:05.265Z,-2.12
2024-01-16T01:03:33.600Z,-2.05
2024-01-16T01:06:02.220Z,-2.01
2024-01-16T01:08:29.734Z,-2.39
2024-01-16T01:10:57.109Z,-2.08
2024-01-16T01:13:26.451Z,-2.34
2024-01-16T01:15:53.877Z,-2.14
2024-01-16T01:18:21.754Z,-1.99
2024-01-16T01:20:49.262Z,-1.89
2024-01-16T01:23:19.220Z,-2.09
2024-01-16T01:25:46.733Z,-2.36
2024-01-16T01:28:13.944Z,-1.94
2024-01-16T01:30:41.502Z,-1.94
2024-01-16T01:33:08.800Z,-2.15
2024-01-16T01:35:36.188Z,-2.07
2024-01-16T01:38:03.466Z,-2.12
2024-01-16T01:40:33.732Z,-1.90
2024-01-16T01:43:17.752Z,-1.99
2024-01-16T01:45:44.921Z,-2.13
2024-01-16T01:48:12.158Z,-1.94
2024-01-16T01:50:40.063Z,-2.20
2024-01-16T01:53:07.288Z,-1.95
2024-01-16T01:55:34.799Z,-2.15
2024-01-16T01:58:05.460Z,-2.44
2024-01-16T02:00:33.191Z,-2.01
2024-01-16T02:03:01.517Z,-2.13
2024-01-16T02:05:30.130Z,-2.07
2024-01-16T02:07:57.636Z,-2.37
2024-01-16T02:10:25.784Z,-2.04
2024-01-16T02:12:52.956Z,-2.23
2024-01-16T02:15:20.210Z,-2.40
2024-01-16T02:17:49.256Z,-2.22
2024-01-16T02:20:36.988Z,-2.39
2024-01-16T02:23:05.738Z,-2.28
2024-01-16T02:25:33.277Z,-2.24
2024-01-16T02:28:01.928Z,-2.19
2024-01-16T02:30:29.064Z,-2.05
2024-01-16T02:32:56.259Z,-2.01
2024-01-16T02:35:23.637Z,-2.38
2024-01-16T02:37:50.939Z,-2.01
2024-01-16T02:40:18.178Z,-2.04
2024-01-16T02:42:46.237Z,-2.30
2024-01-16T02:45:13.784Z,-2.03
2024-01-16T02:47:41.896Z,-2.10
2024-01-16T02:50:11.141Z,-2.25
2024-01-16T02:52:38.537Z,-2.15
2024-01-16T02:55:06.246Z,-2.09
2024-01-16T02:57:33.544Z,-2.48
2024-01-16T03:00:00.686Z,-2.43
2024-01-16T03:02:27.790Z,-2.13
2024-01-16T03:04:55.058Z,-2.12
2024-01-16T03:07:22.070Z,-2.13
2024-01-16T03:09:49.213Z,-2.37
2024-01-16T03:12:16.501Z,-2.22
2024-01-16T03:14:43.877Z,-2.18
2024-01-16T03:17:11.107Z,-2.45
2024-01-16T03:19:38.483Z,-2.22
2024-01-16T03:22:05.727Z,-2.49
2024-01-16T03:24:32.877Z,-2.44
2024-01-16T03:27:00.474Z,-2.29
2024-01-16T03:29:27.671Z,-2.44
2024-01-16T03:31:55.014Z,-2.26
2024-01-16T03:34:22.494Z,-2.40
2024-01-16T03:36:49.690Z,-2.25
2024-01-16T03:39:16.688Z,-2.17
2024-01-16T03:41:43.782Z,-2.19
2024-01-16T03:44:11.092Z,-2.15
2024-01-16T03:46:38.728Z,-2.24
2024-01-16T03:49:05.968Z,-2.45
2024-01-16T03:51:33.667Z,-2.39
2024-01-16T03:54:00.823Z,-2.62
2024-01-16T03:56:28.137Z,-2.31
2024-01-16T03:58:55.549Z,-2.48
2024-01-16T04:01:38.395Z,-2.52
2024-01-16T04:04:08.643Z,-2.52
2024-01-16T04:06:36.183Z,-2.52
2024-01-16T04:09:04.377Z,-2.32
2024-01-16T04:11:31.727Z,-2.54
2024-01-16T04:13:58.959Z,-2.18
2024-01-16T04:16:29.825Z,-2.50
2024-01-16T04:19:00.767Z,-2.44
2024-01-16T04:21:28.841Z,-2.37
2024-01-16T04:23:58.755Z,-2.18
2024-01-16T04:26:28.367Z,-2.24
2024-01-16T04:28:55.813Z,-2.48
2024-01-16T04:31:23.749Z,-2.52
2024-01-16T04:33:51.556Z,-2.77
2024-01-16T04:36:18.977Z,-2.76
2024-01-16T04:38:46.254Z,-2.38
2024-01-16T04:41:13.585Z,-2.44
2024-01-16T04:43:40.987Z,-2.65
2024-01-16T04:46:08.271Z,-2.71
2024-01-16T04:48:35.514Z,-2.66
2024-01-16T04:51:16.099Z,-2.61
2024-01-16T04:53:43.562Z,-2.52
2024-01-16T04:56:11.145Z,-2.41
2024-01-16T04:58:40.968Z,-2.43
2024-01-16T05:01:08.224Z,-2.33
2024-01-16T05:03:35.868Z,-2.51
2024-01-16T05:06:04.627Z,-2.48
2024-01-16T05:08:37.344Z,-2.28
2024-01-16T05:11:04.580Z,-2.56
2024-01-16T05:13:31.885Z,-2.53
2024-01-16T05:15:59.318Z,-2.61
2024-01-16T05:18:26.962Z,-2.53
2024-01-16T05:20:56.125Z,-2.59
2024-01-16T05:23:24.187Z,-2.45
2024-01-16T05:25:51.784Z,-2.83
2024-01-16T05:28:19.216Z,-2.58
2024-01-16T05:30:46.420Z,-2.40
2024-01-16T05:33:14.604Z,-2.65
2024-01-16T05:35:42.111Z,-2.56
2024-01-16T05:38:09.605Z,-2.35
2024-01-16T05:40:38.365Z,-2.85
2024-01-16T05:43:05.853Z,-2.56
2024-01-16T05:45:33.603Z,-2.52
2024-01-16T05:48:01.533Z,-2.36
2024-01-16T05:50:29.070Z,-2.50
2024-01-16T05:52:56.434Z,-2.37
2024-01-16T05:55:23.477Z,-2.36
2024-01-16T05:57:50.775Z,-2.51
2024-01-16T06:00:19.545Z,-2.65
2024-01-16T06:02:47.055Z,-2.49
2024-01-16T06:05:15.469Z,-2.80
2024-01-16T06:07:42.805Z,-2.67
2024-01-16T06:10:10.728Z,-2.68
2024-01-16T06:12:38.387Z,-2.49
2024-01-16T06:15:06.056Z,-2.80
2024-01-16T06:17:33.579Z,-2.52
2024-01-16T06:20:00.992Z,-2.48
2024-01-16T06:22:33.152Z,-2.71
2024-01-16T06:25:00.542Z,-2.68
2024-01-16T06:27:27.615Z,-2.45
2024-01-16T06:29:54.781Z,-2.61
2024-01-16T06:32:22.164Z,-2.64
2024-01-16T06:34:49.603Z,-2.68
2024-01-16T06:37:17.102Z,-2.67
2024-01-16T06:39:44.317Z,-2.52
2024-01-16T06:42:11.859Z,-2.57
2024-01-16T06:44:39.404Z,-2.88
2024-01-16T06:47:07.012Z,-2.82
2024-01-16T06:49:34.320Z,-2.63
2024-01-16T06:52:01.669Z,-2.95
2024-01-16T06:54:29.270Z,-2.91
2024-01-16T06:56:56.626Z,-2.94
2024-01-16T06:59:24.123Z,-2.90
2024-01-16T07:01:51.312Z,-2.88
2024-01-16T07:04:18.417Z,-2.58
2024-01-16T07:06:45.724Z,-2.61
2024-01-16T07:09:12.877Z,-2.60
2024-01-16T07:11:44.232Z,-2.64
2024-01-16T07:14:12.052Z,-2.82
2024-01-16T07:16:39.589Z,-2.49
2024-01-16T07:19:07.068Z,-2.62
2024-01-16T07:21:35.043Z,-2.71
2024-01-16T07:24:02.520Z,-2.67
2024-01-16T07:26:31.004Z,-2.40
2024-01-16T07:28:58.514Z,-2.46
2024-01-16T07:31:26.767Z,-2.54
2024-01-16T07:33:54.280Z,-2.52
2024-01-16T07:36:21.683Z,-2.45
2024-01-16T07:38:49.326Z,-2.67
2024-01-16T07:41:16.910Z,-2.54
2024-01-16T07:43:46.686Z,-2.62
2024-01-16T07:46:15.728Z,-2.32
2024-01-16T07:48:43.581Z,-2.27
2024-01-16T07:51:14.182Z,-2.49
2024-01-16T07:53:41.603Z,-2.60
2024-01-16T07:56:08.909Z,-2.41
2024-01-16T07:58:36.264Z,-2.27
2024-01-16T08:01:04.099Z,-2.40
2024-01-16T08:03:31.816Z,-2.28
2024-01-16T08:06:00.683Z,-2.08
2024-01-16T08:08:28.356Z,-2.19
2024-01-16T08:10:57.688Z,-2.27
2024-01-16T08:13:25.158Z,-2.17
2024-01-16T08:15:52.542Z,-2.17
2024-01-16T08:18:20.063Z,-1.90
2024-01-16T08:20:47.513Z,-2.28
2024-01-16T08:23:14.813Z,-1.77
2024-01-16T08:25:42.265Z,-1.72
2024-01-16T08:28:10.095Z,-1.73
2024-01-16T08:30:54.469Z,-1.96
2024-01-16T08:33:37.224Z,-1.42
2024-01-16T08:39:19.709Z,-1.64
2024-01-16T10:40:06.073Z,-1.75
2024-01-16T10:42:34.084Z,-1.82
2024-01-16T10:45:01.473Z,-1.77
2024-01-16T10:47:32.224Z,-1.52
2024-01-16T10:49:59.671Z,-1.84
2024-01-16T10:52:30.717Z,-1.71
2024-01-16T10:55:04.323Z,-1.47
2024-01-16T10:57:34.038Z,-1.78
2024-01-16T11:00:07.819Z,-1.41
2024-01-16T11:02:50.747Z,-1.89
2024-01-16T11:05:23.839Z,-1.66
2024-01-16T11:08:01.732Z,-1.79
2024-01-16T11:10:34.767Z,-1.90
2024-01-16T11:13:06.903Z,-1.68
2024-01-16T11:15:44.979Z,-1.79
2024-01-16T11:18:20.548Z,-1.57
2024-01-16T11:21:02.425Z,-1.45
2024-01-16T11:23:34.433Z,-1.66
2024-01-16T11:26:25.006Z,-1.78
2024-01-16T11:28:52.512Z,-1.63
2024-01-16T11:31:31.049Z,-1.71
2024-01-16T11:33:58.953Z,-1.81
2024-01-16T11:36:57.944Z,-1.56
2024-01-16T11:39:29.594Z,-1.86
2024-01-16T11:42:04.229Z,-2.13
2024-01-16T11:44:57.072Z,-1.65
2024-01-16T11:47:25.795Z,-1.88
2024-01-16T11:50:14.900Z,-1.68
2024-01-16T11:52:46.685Z,-1.67
2024-01-16T11:55:38.002Z,-1.96
2024-01-16T11:58:23.924Z,-1.73
2024-01-16T12:00:55.169Z,-1.99
2024-01-16T12:03:48.483Z,-1.66
2024-01-16T12:06:21.058Z,-1.84
2024-01-16T12:08:51.487Z,-2.13
2024-01-16T12:11:30.249Z,-1.98
2024-01-16T12:14:10.791Z,-2.03
2024-01-16T12:19:22.288Z,-1.76
2024-01-16T12:21:52.289Z,-2.09
2024-01-16T12:24:19.945Z,-2.13
2024-01-16T12:26:48.851Z,-2.05
2024-01-16T12:29:19.831Z,-2.08
2024-01-16T12:31:48.670Z,-2.10
2024-01-16T12:34:27.132Z,-2.18
2024-01-16T12:37:07.868Z,-1.86
2024-01-16T12:39:39.212Z,-1.85
2024-01-16T12:42:07.259Z,-1.90
2024-01-16T12:44:50.268Z,-1.99
2024-01-16T12:47:20.660Z,-2.13
2024-01-16T12:49:48.611Z,-2.29
2024-01-16T12:52:19.348Z,-2.15
2024-01-16T12:54:56.811Z,-2.10
2024-01-16T12:57:24.713Z,-1.95
2024-01-16T12:59:54.412Z,-2.12
2024-01-16T13:02:24.428Z,-2.48
2024-01-16T13:05:05.520Z,-2.36
2024-01-16T13:07:35.947Z,-2.09
2024-01-16T13:10:14.133Z,-2.45
2024-01-16T13:12:49.013Z,-2.19
2024-01-16T13:15:20.564Z,-1.90
2024-01-16T13:17:49.526Z,-2.05
2024-01-16T13:20:17.795Z,-2.23
2024-01-16T13:22:47.832Z,-1.99
2024-01-16T13:25:16.663Z,-2.03
2024-01-16T13:27:47.257Z,-2.24
2024-01-16T13:30:17.444Z,-2.05
2024-01-16T13:32:45.163Z,-2.45
2024-01-16T13:35:15.993Z,-2.23
2024-01-16T13:37:48.437Z,-2.11
2024-01-16T13:40:17.166Z,-2.02
2024-01-16T13:42:45.221Z,-2.39
2024-01-16T13:45:18.359Z,-2.43
2024-01-16T13:47:48.193Z,-2.04
2024-01-16T13:53:07.861Z,-2.02
2024-01-16T13:55:35.139Z,-1.92
2024-01-16T13:58:05.608Z,-1.96
2024-01-16T14:00:33.059Z,-2.20
2024-01-16T14:03:02.184Z,-2.29
2024-01-16T14:08:03.612Z,-2.15
2024-01-16T14:10:31.095Z,-1.88
2024-01-16T14:13:03.050Z,-1.94
2024-01-16T14:15:31.658Z,-1.93
2024-01-16T14:17:59.843Z,-2.26
2024-01-16T14:20:30.607Z,-2.22
2024-01-16T14:23:01.117Z,-1.91
2024-01-16T14:25:41.582Z,-1.91
2024-01-16T14:28:15.353Z,-2.19
2024-01-16T14:30:51.524Z,-2.12
2024-01-16T14:33:19.384Z,-1.96
2024-01-16T14:35:47.076Z,-2.13
2024-01-16T14:38:14.603Z,-2.26
2024-01-16T14:43:27.244Z,-2.23
2024-01-16T14:45:59.707Z,-1.94
2024-01-16T14:48:28.140Z,-1.99
2024-01-16T14:51:03.831Z,-2.37
2024-01-16T14:53:32.884Z,-2.00
2024-01-16T14:56:07.214Z,-2.47
2024-01-16T14:58:34.821Z,-2.10
2024-01-16T15:01:02.846Z,-2.37
2024-01-16T15:03:30.808Z,-2.07
2024-01-16T15:05:59.591Z,-1.92
2024-01-16T15:08:28.128Z,-2.30
2024-01-16T15:11:00.919Z,-2.15
2024-01-16T15:13:37.874Z,-2.23
2024-01-16T15:16:05.771Z,-2.54
2024-01-16T15:18:34.040Z,-1.99
2024-01-16T15:21:05.438Z,-2.12
2024-01-16T15:23:37.771Z,-2.03
2024-01-16T15:26:08.746Z,-2.29
2024-01-16T15:28:46.255Z,-2.22
2024-01-16T15:31:22.951Z,-2.34
2024-01-16T15:33:50.808Z,-1.98
2024-01-16T15:36:20.194Z,-2.16
2024-01-16T15:38:51.630Z,-1.81
2024-01-16T15:41:22.173Z,-2.30
2024-01-16T15:46:31.500Z,-2.12
2024-01-16T15:48:59.664Z,-2.04
2024-01-16T15:51:27.235Z,-2.20
2024-01-16T15:53:54.651Z,-2.02
2024-01-16T15:56:22.511Z,-2.13
2024-01-16T15:58:57.867Z,-2.05
2024-01-16T16:01:26.839Z,-1.97
2024-01-16T16:03:56.618Z,-1.84
2024-01-16T16:06:29.258Z,-1.83
2024-01-16T16:09:01.158Z,-1.74
2024-01-16T16:11:50.811Z,-2.22
2024-01-16T16:14:21.309Z,-1.83
2024-01-16T16:16:55.522Z,-1.81
2024-01-16T16:19:29.662Z,-2.04
2024-01-16T16:22:01.853Z,-2.48
2024-01-16T16:24:39.163Z,-2.66
2024-01-16T16:27:33.201Z,-2.21
2024-01-16T16:30:14.130Z,-2.39
2024-01-16T16:35:33.720Z,-2.65
2024-01-16T16:38:03.854Z,-2.27
2024-01-16T16:40:34.170Z,-2.23
2024-01-16T16:43:08.042Z,-2.39
2024-01-16T16:45:42.304Z,-2.14
2024-01-16T16:48:25.065Z,-1.94
2024-01-16T16:50:53.465Z,-2.09
2024-01-16T16:53:28.294Z,-2.33
2024-01-16T16:56:00.985Z,-2.27
2024-01-16T16:58:37.689Z,-1.92
2024-01-16T17:01:08.081Z,-2.34
2024-01-16T17:03:44.519Z,-2.08
2024-01-16T17:06:13.874Z,-2.22
2024-01-16T17:08:54.261Z,-2.20
2024-01-16T17:11:29.075Z,-1.96
2024-01-16T17:14:17.866Z,-2.52
2024-01-16T17:16:49.700Z,-2.16
2024-01-16T17:19:34.047Z,-2.00
2024-01-16T17:24:52.441Z,-1.99
2024-01-16T17:27:27.743Z,-2.10
2024-01-16T17:30:04.516Z,-2.55
2024-01-16T17:32:41.249Z,-2.07
2024-01-16T17:41:06.962Z,-2.25
2024-01-16T17:43:38.118Z,-2.35
2024-01-16T17:46:10.365Z,-2.49
2024-01-16T17:48:47.561Z,-2.37
2024-01-16T17:51:22.730Z,-2.59
2024-01-16T17:53:54.705Z,-2.63
2024-01-16T17:56:39.135Z,-2.20
2024-01-16T18:02:32.554Z,-2.71
2024-01-16T18:05:36.049Z,-2.75
2024-01-16T18:08:51.524Z,-2.91
2024-01-16T18:11:34.626Z,-2.77
2024-01-16T18:14:11.209Z,-2.57
2024-01-16T18:16:51.680Z,-2.69
2024-01-16T18:19:49.697Z,-2.89
2024-01-16T18:22:30.144Z,-2.74
2024-01-16T18:24:58.482Z,-2.95
2024-01-16T18:28:06.085Z,-2.97
2024-01-16T18:30:36.815Z,-2.47
2024-01-16T18:37:06.449Z,-2.58
2024-01-16T18:45:12.746Z,-3.10
2024-01-16T18:47:54.522Z,-2.69
2024-01-16T18:50:23.377Z,-3.11
2024-01-16T18:53:07.188Z,-3.31
2024-01-16T18:55:39.551Z,-3.11
2024-01-16T18:58:54.782Z,-2.89
2024-01-16T19:04:33.767Z,-3.24
2024-01-16T19:07:19.898Z,-2.94
2024-01-16T19:13:02.161Z,-3.24
2024-01-16T19:19:01.091Z,-3.26
2024-01-16T19:21:31.739Z,-2.97
2024-01-16T19:24:19.566Z,-3.03
2024-01-16T19:26:51.057Z,-3.26
2024-01-16T19:29:23.132Z,-3.31
2024-01-16T19:37:35.634Z,-3.13
2024-01-16T19:40:22.729Z,-3.36
2024-01-16T19:42:58.863Z,-3.52
2024-01-16T19:45:40.484Z,-3.44
2024-01-16T19:48:15.611Z,-3.37
2024-01-16T19:50:53.148Z,-3.04
2024-01-16T19:53:31.980Z,-3.04
2024-01-16T19:56:03.254Z,-3.43
2024-01-16T19:58:31.929Z,-3.08
2024-01-16T20:01:05.273Z,-3.08
2024-01-16T20:03:37.510Z,-3.63
2024-01-16T20:06:22.827Z,-3.30
2024-01-16T20:08:53.319Z,-3.11
2024-01-16T20:11:31.389Z,-3.35
2024-01-16T20:14:12.933Z,-3.13
2024-01-16T20:16:51.308Z,-3.76
2024-01-16T20:19:31.746Z,-3.67
2024-01-16T20:22:14.066Z,-3.30
2024-01-16T20:27:27.757Z,-3.36
2024-01-16T20:29:56.485Z,-3.35
2024-01-16T20:32:26.269Z,-3.49
2024-01-16T20:34:57.086Z,-3.47
2024-01-16T20:37:28.661Z,-3.62
2024-01-16T20:40:02.966Z,-3.07
2024-01-16T20:42:38.089Z,-3.04
2024-01-16T20:48:45.374Z,-3.58
2024-01-16T20:51:20.024Z,-3.85
2024-01-16T20:56:36.758Z,-3.71
2024-01-16T20:59:38.001Z,-3.40
2024-01-16T21:02:07.809Z,-3.37
2024-01-16T21:04:47.075Z,-3.79
2024-01-16T21:07:24.077Z,-3.33
2024-01-16T21:09:51.534Z,-3.85
2024-01-16T21:26:22.821Z,-4.03
2024-01-16T21:28:54.481Z,-3.87
2024-01-16T21:32:13.261Z,-3.59
2024-01-16T21:34:50.294Z,-3.48
2024-01-16T21:37:24.812Z,-3.94
2024-01-16T21:39:54.398Z,-3.89
2024-01-16T21:42:33.574Z,-4.05
2024-01-16T21:48:09.288Z,-3.55
2024-01-16T21:50:54.242Z,-3.90
2024-01-16T22:51:00.299Z,-5.73
2024-01-16T22:53:42.153Z,-5.66
2024-01-16T23:03:32.426Z,-5.55
2024-01-16T23:06:04.212Z,-5.79
2024-01-16T23:14:06.862Z,-5.67
2024-01-16T23:22:24.004Z,-5.92
2024-01-16T23:24:51.738Z,-5.85
2024-01-16T23:37:35.419Z,-6.30
2024-01-16T23:40:02.916Z,-5.99
2024-01-16T23:42:35.669Z,-6.17
2024-01-16T23:45:07.983Z,-6.19
2024-01-16T23:47:54.854Z,-6.01
2024-01-16T23:50:26.887Z,-6.08
2024-01-16T23:52:54.667Z,-5.70
2024-01-16T23:58:10.372Z,-6.19
